ADDS METAR Data INFO
IDs: Format: Raw Decoded Include TAF

Data at: 0219 UTC 18 Jan 2018

KIIY 180155Z AUTO 31006KT 10SM CLR M03/M13 A3033 RMK AO2 TSNO
KIIY 180135Z AUTO 30010KT 10SM CLR M02/M13 A3032 RMK AO2 TSNO
KIIY 180115Z AUTO 31008G14KT 10SM CLR M02/M13 A3031 RMK AO2 TSNO
KIIY 180055Z AUTO 30009G17KT 275V335 10SM CLR M02/M12 A3032 RMK AO2 TSNO
KIIY 180035Z AUTO 30008KT 10SM CLR M01/M12 A3031 RMK AO2 TSNO
KIIY 180015Z AUTO 29010KT 10SM CLR M01/M12 A3031 RMK AO2 TSNO
KIIY 172355Z AUTO 29008KT 10SM SCT043 SCT060 M01/M10 A3031 RMK AO2 TSNO
KIIY 172335Z AUTO 27007KT 10SM BKN043 M01/M10 A3030 RMK AO2 TSNO
KIIY 172315Z AUTO 27006KT 10SM BKN039 BKN060 00/M10 A3029 RMK AO2 TSNO
KIIY 172255Z AUTO 28007KT 10SM BKN037 BKN044 00/M10 A3028 RMK AO2 TSNO
KIIY 172235Z AUTO 28005KT 10SM SCT035 BKN041 00/M10 A3028 RMK AO2 TSNO
KIIY 172215Z AUTO 28008KT 10SM 00/M10 A3028 RMK AO2 TSNO
KIIY 172155Z AUTO 28008KT 10SM 00/M10 A3027 RMK AO2 TSNO
KIIY 172135Z AUTO 28007G14KT 10SM 00/M10 A3027 RMK AO2 TSNO
KIIY 172115Z AUTO 29012G15KT 10SM 00/M10 A3026 RMK AO2 TSNO
KIIY 172055Z AUTO 28013KT 10SM 00/M10 A3026 RMK AO2 TSNO
KIIY 172035Z AUTO 28011KT 10SM 00/M10 A3026 RMK AO2 TSNO
KIIY 172015Z AUTO 29012G15KT 10SM 00/M10 A3025 RMK AO2 TSNO
KIIY 171350Z AUTO 27009KT 2SM -SN OVC006 M02/M03 A3028 RMK AO2 TSNO
KIIY 171335Z AUTO 28008KT 1 1/2SM -SN OVC006 M02/M03 A3028 RMK AO2 TSNO
KIIY 171315Z AUTO 28007KT 2 1/2SM -SN OVC006 M01/M02 A3028 RMK AO2 TSNO
KIIY 171255Z AUTO 29005KT 3SM -SN OVC006 M01/M02 A3027 RMK AO2 TSNO
KIIY 171235Z AUTO 29007KT 1 3/4SM -SN OVC006 M01/M02 A3028 RMK AO2 TSNO
KIIY 171215Z AUTO 29005KT 2 1/2SM -SN BKN006 OVC010 M01/M01 A3028 RMK AO2 TSNO
KIIY 171155Z AUTO 30005KT 2 1/2SM -SN OVC008 M01/M02 A3028 RMK AO2 TSNO
KIIY 171135Z AUTO 30006KT 3SM -SN OVC008 M01/M02 A3028 RMK AO2 TSNO
KIIY 171115Z AUTO 29005KT 5SM -SN OVC008 00/M01 A3028 RMK AO2 TSNO
KIIY 171055Z AUTO 30008KT 2 1/2SM -SN BKN006 OVC010 00/M01 A3028 RMK AO2 TSNO
KIIY 171035Z AUTO 29005KT 3SM -SN BKN008 OVC012 00/M01 A3028 RMK AO2 TSNO
KIIY 171015Z AUTO 29009KT 7SM UP BKN011 OVC035 00/M01 A3028 RMK AO2 TSNO
KIIY 170955Z AUTO 29009KT 2 1/2SM -SN SCT007 BKN013 OVC033 00/M01 A3028 RMK AO2 TSNO
KIIY 170935Z AUTO 30010KT 10SM -SN SCT005 SCT033 01/M01 A3028 RMK AO2 TSNO
KIIY 170915Z AUTO 30011KT 7SM -SN SCT005 SCT011 BKN033 01/M01 A3028 RMK AO2 TSNO
KIIY 170855Z AUTO 29008KT 10SM -SN BKN033 BKN047 01/M01 A3028 RMK AO2 TSNO
KIIY 170835Z AUTO 29007KT 10SM BKN033 BKN049 02/M01 A3028 RMK AO2 TSNO
KIIY 170815Z AUTO 30007KT 10SM BKN033 BKN049 02/M01 A3028 RMK AO2 TSNO
KIIY 170755Z AUTO 29007KT 10SM SCT031 BKN049 02/M01 A3028 RMK AO2 TSNO
KIIY 170735Z AUTO 31004KT 10SM SCT031 BKN049 03/M01 A3029 RMK AO2 TSNO
KIIY 170715Z AUTO 30006KT 10SM SCT033 BKN049 03/M01 A3029 RMK AO2 TSNO
KIIY 170655Z AUTO 31007KT 10SM SCT047 03/00 A3028 RMK AO2 TSNO
KIIY 170635Z AUTO 30009KT 10SM BKN047 03/00 A3029 RMK AO2 TSNO
KIIY 170615Z AUTO 28007KT 10SM CLR 03/00 A3029 RMK AO2 TSNO
KIIY 170555Z AUTO 29005KT 10SM SCT017 SCT045 04/00 A3030 RMK AO2 TSNO
KIIY 170535Z AUTO 30006KT 10SM SCT044 05/00 A3030 RMK AO2 TSNO
KIIY 170515Z AUTO 29008KT 10SM BKN044 05/01 A3030 RMK AO2 TSNO
KIIY 170455Z AUTO 31008KT 10SM BKN046 05/01 A3030 RMK AO2 TSNO
KIIY 170435Z AUTO 30006KT 10SM OVC046 06/01 A3030 RMK AO2 TSNO
KIIY 170415Z AUTO 31009G15KT 10SM BKN048 06/01 A3030 RMK AO2 TSNO
KIIY 170355Z AUTO 31007KT 10SM OVC048 07/00 A3031 RMK AO2 TSNO
KIIY 170335Z AUTO 29010G14KT 10SM BKN048 08/00 A3030 RMK AO2 TSNO
KIIY 170315Z AUTO 29006KT 10SM BKN044 08/00 A3030 RMK AO2 TSNO
KIIY 170255Z AUTO 29005KT 10SM OVC044 07/00 A3030 RMK AO2 TSNO
KIIY 170235Z AUTO 24003KT 10SM BKN046 06/01 A3030 RMK AO2 TSNO
KIIY 170215Z AUTO 00000KT 10SM SCT048 06/01 A3030 RMK AO2 TSNO
KIIY 170155Z AUTO 21003KT 10SM SCT050 06/02 A3031 RMK AO2 TSNO
KIIY 170135Z AUTO 20003KT 10SM SCT050 07/01 A3031 RMK AO2 TSNO
KIIY 170115Z AUTO 00000KT 10SM SCT050 SCT060 06/01 A3031 RMK AO2 TSNO
KIIY 170055Z AUTO 19003KT 10SM SCT050 SCT060 06/02 A3031 RMK AO2 TSNO
KIIY 170035Z AUTO 00000KT 10SM BKN050 06/02 A3031 RMK AO2 TSNO
KIIY 170015Z AUTO 00000KT 10SM BKN050 07/01 A3031 RMK AO2 TSNO
KIIY 162355Z AUTO 00000KT 10SM BKN050 07/01 A3031 RMK AO2 TSNO
KIIY 162335Z AUTO 00000KT 10SM SCT050 07/01 A3031 RMK AO2 TSNO
KIIY 162315Z AUTO 00000KT 10SM SCT050 07/01 A3031 RMK AO2 TSNO
KIIY 162255Z AUTO 00000KT 10SM CLR 07/00 A3031 RMK AO2 TSNO
KIIY 162235Z AUTO 00000KT 10SM CLR 08/01 A3031 RMK AO2 TSNO
KIIY 162215Z AUTO 00000KT 10SM CLR 10/00 A3032 RMK AO2 TSNO
KIIY 162155Z AUTO 00000KT 10SM CLR 10/M01 A3032 RMK AO2 TSNO
KIIY 162135Z AUTO 22004KT 10SM CLR 10/M01 A3033 RMK AO2 TSNO
KIIY 162115Z AUTO 25004KT 10SM CLR 11/M01 A3033 RMK AO2 TSNO